Eighty Four, PA (15330)

8:38 PM EDT on April 27, 2015 (GMT -0400)
Nottingham Twp. | | Change Station
CLOSE
Current Station
Personal Weather Station
Location: Eighty Four, PA
Elevation: 1306 ft
Nearby Weather Stations

Elev 1306 ft 40.23 °N, 80.10 °W | Updated 9 seconds ago

Overcast
Overcast
42.0 °F
Feels Like 40 °F
N
3.5
Wind Variable Wind from NNE
Gusts 3.5 mph

Today
High -- | Low -- °F
--% Chance of Precip.
Yesterday
High -- | Low -- °F
Precip. -- in
6:25 AM 8:11 PM
Waxing Gibbous, 69% visible
Pressure 30.01 in
Visibility 10.0 miles
Clouds Scattered Clouds 2900 ft
Overcast 3700 ft
Windchill 40 °F
Dew Point 32 °F
Humidity 68%
Rainfall 0.00 in
Snow Depth Not available.
UV 0 out of 12
Pollen 9.80 out of 12
Air Quality Not available.
Flu Activity Sporadic
METAR KAFJ 280035Z AUTO 30004KT 10SM SCT029 OVC037 06/M01 A3001 RMK AO1

More Conditions Fewer Conditions

Pressure 30.01 in
Visibility 10.0 miles
Clouds Scattered Clouds 2900 ft
Overcast 3700 ft
Windchill 40 °F
Dew Point 32 °F
Humidity 68%
Rainfall 0.00 in
Snow Depth Not available.
UV 0 out of 12
Pollen 9.80 out of 12
Air Quality Not available.
Flu Activity Sporadic
METAR KAFJ 280035Z AUTO 30004KT 10SM SCT029 OVC037 06/M01 A3001 RMK AO1

More Conditions Fewer Conditions

10-Day Weather Forecast

Almanac

Astronomy

Apr. 27, 2015 Rise Set
Actual Time
Civil Twilight
Nautical Twilight
Astronomical Twilight
Moon
Length of Visible Light
Length of Day
Tomorrow will be .
, % of the Moon is Illuminated

Today's Extremes

State Highs State Lows

Community

WunderPhotos

Upload Photos

1,817,496 photos uploaded!

WunderBlogs® & News

Nearby

Air Quality

  Air Quality AQ Index Pollutant
Not available.

Snow Depth

Station Depth Elevation

Earthquake Activity

City Distance Mag. Time & Date
Minimum magnitude displayed is 2.5.

Coastal Water Temperatures

Place Temperature

Stations

Nearby Weather Stations

Station Location Temp. Windchill Dew Point Humidity Wind Precip. Elev Updated Type